createdAt,value
2018-12-26T00:00:29.915Z,23.67
2018-12-26T00:02:58.752Z,27.43
2018-12-26T00:05:28.488Z,25.67
2018-12-26T00:07:58.778Z,26.23
2018-12-26T00:10:27.564Z,26.50
2018-12-26T00:12:56.396Z,25.10
2018-12-26T00:15:25.192Z,35.90
2018-12-26T00:17:54.065Z,29.20
2018-12-26T00:20:22.854Z,28.67
2018-12-26T00:22:51.935Z,28.27
2018-12-26T00:25:20.839Z,28.03
2018-12-26T00:27:49.635Z,27.60
2018-12-26T00:30:18.419Z,26.70
2018-12-26T00:32:47.297Z,26.17
2018-12-26T00:35:16.149Z,28.70
2018-12-26T00:37:45.003Z,28.50
2018-12-26T00:40:14.523Z,27.20
2018-12-26T00:42:43.363Z,28.53
2018-12-26T00:45:12.151Z,29.33
2018-12-26T00:47:40.939Z,26.53
2018-12-26T00:50:10.506Z,24.50
2018-12-26T00:52:39.316Z,25.73
2018-12-26T00:55:08.116Z,24.80
2018-12-26T00:57:36.948Z,28.57
2018-12-26T01:00:06.755Z,24.90
2018-12-26T01:02:35.602Z,28.20
2018-12-26T01:05:04.395Z,30.17
2018-12-26T01:07:33.719Z,26.90
2018-12-26T01:10:02.549Z,29.17
2018-12-26T01:12:31.395Z,29.83
2018-12-26T01:15:00.213Z,26.93
2018-12-26T01:17:29.039Z,28.00
2018-12-26T01:19:57.824Z,25.67
2018-12-26T01:22:26.614Z,26.40
2018-12-26T01:24:55.399Z,27.03
2018-12-26T01:27:24.827Z,29.30
2018-12-26T01:29:53.668Z,25.53
2018-12-26T01:32:22.504Z,26.20
2018-12-26T01:34:51.282Z,25.83
2018-12-26T01:37:20.073Z,28.60
2018-12-26T01:39:49.878Z,28.73
2018-12-26T01:42:18.673Z,24.63
2018-12-26T01:44:47.535Z,25.10
2018-12-26T01:47:17.285Z,27.47
2018-12-26T01:49:47.144Z,26.47
2018-12-26T01:52:15.991Z,29.80
2018-12-26T01:54:44.816Z,32.10
2018-12-26T01:57:14.479Z,28.47
2018-12-26T01:59:43.286Z,28.13
2018-12-26T02:02:12.598Z,32.03
2018-12-26T02:04:41.366Z,27.60
2018-12-26T02:07:10.795Z,26.97
2018-12-26T02:09:39.588Z,26.53
2018-12-26T02:12:08.371Z,27.43
2018-12-26T02:14:37.304Z,30.80
2018-12-26T02:17:07.100Z,30.80
2018-12-26T02:19:35.871Z,31.20
2018-12-26T02:22:05.649Z,29.63
2018-12-26T02:24:34.903Z,30.30
2018-12-26T02:27:03.740Z,29.10
2018-12-26T02:29:33.202Z,27.80
2018-12-26T02:32:01.987Z,27.70
2018-12-26T02:34:30.822Z,28.53
2018-12-26T02:36:59.671Z,28.17
2018-12-26T02:39:29.726Z,31.67
2018-12-26T02:41:58.495Z,32.20
2018-12-26T02:44:27.823Z,29.27
2018-12-26T02:46:56.645Z,31.20
2018-12-26T02:49:25.556Z,30.97
2018-12-26T02:51:54.381Z,32.57
2018-12-26T02:54:23.159Z,28.23
2018-12-26T02:56:52.252Z,28.23
2018-12-26T02:59:21.572Z,29.80
2018-12-26T03:01:50.369Z,32.50
2018-12-26T03:04:20.636Z,31.90
2018-12-26T03:06:49.411Z,30.60
2018-12-26T03:09:18.789Z,30.77
2018-12-26T03:11:48.506Z,28.97
2018-12-26T03:14:17.301Z,30.17
2018-12-26T03:16:46.106Z,29.20
2018-12-26T03:19:16.046Z,30.27
2018-12-26T03:21:44.819Z,29.07
2018-12-26T03:24:13.676Z,30.40
2018-12-26T03:26:42.491Z,29.73
2018-12-26T03:29:11.284Z,30.00
2018-12-26T03:31:40.300Z,32.83
2018-12-26T03:34:09.561Z,32.47
2018-12-26T03:36:38.355Z,28.60
2018-12-26T03:39:07.144Z,28.97
2018-12-26T03:41:35.972Z,29.00
2018-12-26T03:44:06.206Z,33.10
2018-12-26T03:46:34.987Z,31.60
2018-12-26T03:49:03.922Z,32.30
2018-12-26T03:51:33.318Z,31.97
2018-12-26T03:54:02.091Z,33.53
2018-12-26T03:56:31.140Z,29.53
2018-12-26T03:59:01.149Z,31.73
2018-12-26T04:01:29.992Z,32.57
2018-12-26T04:03:58.823Z,29.73
2018-12-26T04:06:27.814Z,31.07
2018-12-26T04:08:56.889Z,30.47
2018-12-26T04:11:25.747Z,29.13
2018-12-26T04:13:54.468Z,30.63
2018-12-26T04:16:23.796Z,30.13
2018-12-26T04:18:52.817Z,28.67
2018-12-26T04:21:21.752Z,30.60
2018-12-26T04:23:50.541Z,29.93
2018-12-26T04:26:20.351Z,28.53
2018-12-26T04:28:49.334Z,32.07
2018-12-26T04:31:18.110Z,27.80
2018-12-26T04:33:48.915Z,29.57
2018-12-26T04:36:17.663Z,31.03
2018-12-26T04:38:46.467Z,29.53
2018-12-26T04:41:15.297Z,29.80
2018-12-26T04:43:44.644Z,28.63
2018-12-26T04:46:14.231Z,31.83
2018-12-26T04:48:43.023Z,29.43
2018-12-26T04:51:11.857Z,31.63
2018-12-26T04:53:40.631Z,31.23
2018-12-26T04:56:09.514Z,29.57
2018-12-26T04:58:38.306Z,29.97
2018-12-26T05:01:07.094Z,31.77
2018-12-26T05:03:35.924Z,31.67
2018-12-26T05:06:04.798Z,30.77
2018-12-26T05:08:33.672Z,28.77
2018-12-26T05:11:03.428Z,29.63
2018-12-26T05:13:33.643Z,29.40
2018-12-26T05:16:02.476Z,30.20
2018-12-26T05:18:31.677Z,28.30
2018-12-26T05:21:01.251Z,28.23
2018-12-26T05:23:30.214Z,29.73
2018-12-26T05:25:58.982Z,28.47
2018-12-26T05:28:27.761Z,26.63
2018-12-26T05:30:56.538Z,27.63
2018-12-26T05:33:25.311Z,29.73
2018-12-26T05:35:54.103Z,28.93
2018-12-26T05:38:23.491Z,29.33
2018-12-26T05:40:52.291Z,29.53
2018-12-26T05:43:21.208Z,28.27
2018-12-26T05:45:50.026Z,26.03
2018-12-26T05:48:18.803Z,26.70
2018-12-26T05:50:47.675Z,27.33
2018-12-26T05:53:16.521Z,29.30
2018-12-26T05:55:45.328Z,27.47
2018-12-26T05:58:14.122Z,27.47
2018-12-26T06:00:43.030Z,26.53
2018-12-26T06:03:12.475Z,25.73
2018-12-26T06:05:42.610Z,28.10
2018-12-26T06:08:11.767Z,26.90
2018-12-26T06:10:40.710Z,26.97
2018-12-26T06:13:09.502Z,26.20
2018-12-26T06:15:38.331Z,27.17
2018-12-26T06:18:08.311Z,28.23
2018-12-26T06:20:35.883Z,24.80
2018-12-26T06:23:04.666Z,25.93
2018-12-26T06:25:34.293Z,28.37
2018-12-26T06:28:03.071Z,28.03
2018-12-26T06:30:32.050Z,25.97
2018-12-26T06:33:00.832Z,25.83
2018-12-26T06:35:29.700Z,25.77
2018-12-26T06:37:58.472Z,26.03
2018-12-26T06:40:28.119Z,26.67
2018-12-26T06:42:56.914Z,24.97
2018-12-26T06:45:26.442Z,27.03
2018-12-26T06:47:55.220Z,24.47
2018-12-26T06:50:25.041Z,24.40
2018-12-26T06:52:53.876Z,25.47
2018-12-26T06:55:22.684Z,22.90
2018-12-26T06:57:59.860Z,25.80
2018-12-26T07:00:20.596Z,24.90
2018-12-26T07:02:49.751Z,24.13
2018-12-26T07:05:19.525Z,24.23
2018-12-26T07:07:48.874Z,24.60
2018-12-26T07:10:18.758Z,25.87
2018-12-26T07:12:47.665Z,26.53
2018-12-26T07:15:16.524Z,24.87
2018-12-26T07:17:45.315Z,24.60
2018-12-26T07:20:14.895Z,25.63
2018-12-26T07:22:43.740Z,23.10
2018-12-26T07:25:12.503Z,26.07
2018-12-26T07:27:41.820Z,26.50
2018-12-26T07:30:13.072Z,24.90
2018-12-26T07:32:41.871Z,25.00
2018-12-26T07:35:10.652Z,24.33
2018-12-26T07:37:39.447Z,26.53
2018-12-26T07:40:08.252Z,26.93
2018-12-26T07:42:37.110Z,24.23
2018-12-26T07:45:07.811Z,25.63
2018-12-26T07:47:36.660Z,26.70
2018-12-26T07:50:06.781Z,29.43
2018-12-26T07:52:35.699Z,25.00
2018-12-26T07:55:04.555Z,26.37
2018-12-26T07:57:33.351Z,30.17
2018-12-26T08:00:03.691Z,27.30
2018-12-26T08:02:32.496Z,28.63
2018-12-26T08:05:01.292Z,28.03
2018-12-26T08:07:30.356Z,28.60
2018-12-26T08:10:00.243Z,30.30
2018-12-26T08:12:29.057Z,33.00
2018-12-26T08:14:59.081Z,29.13
2018-12-26T08:17:27.864Z,30.23
2018-12-26T08:19:56.736Z,32.90
2018-12-26T08:22:26.635Z,31.17
2018-12-26T08:24:55.476Z,35.20
2018-12-26T08:27:24.283Z,33.07
2018-12-26T08:29:53.624Z,35.83
2018-12-26T08:32:22.411Z,34.67
2018-12-26T08:34:51.199Z,32.97
2018-12-26T08:37:20.126Z,36.90
2018-12-26T08:39:48.931Z,35.97
2018-12-26T08:42:18.579Z,36.57
2018-12-26T08:44:47.377Z,36.10
2018-12-26T08:47:16.169Z,35.83
2018-12-26T08:49:45.859Z,36.10
2018-12-26T08:52:15.250Z,35.03
2018-12-26T08:54:44.868Z,38.80
2018-12-26T08:57:13.727Z,40.03
2018-12-26T08:59:42.860Z,40.10
2018-12-26T09:02:12.399Z,34.93
2018-12-26T09:04:41.657Z,38.53
2018-12-26T09:07:10.539Z,39.23
2018-12-26T09:09:39.394Z,38.93
2018-12-26T09:12:09.881Z,37.30
2018-12-26T09:14:39.338Z,40.53
2018-12-26T09:17:08.116Z,41.30
2018-12-26T09:19:36.946Z,38.13
2018-12-26T09:22:05.842Z,39.90
2018-12-26T09:24:34.691Z,40.33
2018-12-26T09:27:06.680Z,37.37
2018-12-26T09:29:36.489Z,39.67
2018-12-26T09:32:05.539Z,38.63
2018-12-26T09:34:34.379Z,38.27
2018-12-26T09:37:03.203Z,41.57
2018-12-26T09:39:32.305Z,37.93
2018-12-26T09:42:01.443Z,39.83
2018-12-26T09:44:30.426Z,41.03
2018-12-26T09:46:59.216Z,40.17
2018-12-26T09:49:28.837Z,40.67
2018-12-26T09:51:57.739Z,43.00
2018-12-26T09:54:26.582Z,39.40
2018-12-26T09:56:55.376Z,41.33
2018-12-26T09:59:24.158Z,40.33
2018-12-26T10:01:54.459Z,39.93
2018-12-26T10:04:24.300Z,39.73
2018-12-26T10:06:53.068Z,39.90
2018-12-26T10:09:21.884Z,39.03
2018-12-26T10:11:50.682Z,39.40
2018-12-26T10:14:19.483Z,39.50
2018-12-26T10:16:48.256Z,41.77
2018-12-26T10:19:17.247Z,40.13
2018-12-26T10:21:46.179Z,41.23
2018-12-26T10:24:14.976Z,41.43
2018-12-26T10:26:43.807Z,36.83
2018-12-26T10:29:13.300Z,38.17
2018-12-26T10:31:42.198Z,36.70
2018-12-26T10:34:11.288Z,39.50
2018-12-26T10:36:41.447Z,37.70
2018-12-26T10:39:10.235Z,40.47
2018-12-26T10:41:39.036Z,40.33
2018-12-26T10:44:07.812Z,39.93
2018-12-26T10:46:36.636Z,41.53
2018-12-26T10:49:05.532Z,41.27
2018-12-26T10:51:34.281Z,42.43
2018-12-26T10:54:03.046Z,43.50
2018-12-26T10:56:31.931Z,42.87
2018-12-26T10:59:09.771Z,45.83
2018-12-26T11:01:31.774Z,43.80
2018-12-26T11:04:00.531Z,42.77
2018-12-26T11:06:29.639Z,42.77
2018-12-26T11:08:58.515Z,42.47
2018-12-26T11:11:27.299Z,43.27
2018-12-26T11:13:57.327Z,39.77
2018-12-26T11:16:27.124Z,38.07
2018-12-26T11:18:56.240Z,40.20
2018-12-26T11:21:25.163Z,37.73
2018-12-26T11:23:55.004Z,41.10
2018-12-26T11:26:23.811Z,41.57
2018-12-26T11:28:53.447Z,39.80
2018-12-26T11:31:22.286Z,38.07
2018-12-26T11:33:51.550Z,38.57
2018-12-26T11:36:20.465Z,37.83
2018-12-26T11:38:49.306Z,35.97
2018-12-26T11:41:18.291Z,36.43
2018-12-26T11:43:47.076Z,36.93
2018-12-26T11:46:15.893Z,38.30
2018-12-26T11:48:44.692Z,36.53
2018-12-26T11:51:14.014Z,36.53
2018-12-26T11:53:42.833Z,41.03
2018-12-26T11:56:11.664Z,36.23
2018-12-26T11:58:40.502Z,39.87
2018-12-26T12:01:09.350Z,35.17
2018-12-26T12:03:38.183Z,34.67
2018-12-26T12:06:09.026Z,34.73
2018-12-26T12:08:37.866Z,37.13
2018-12-26T12:11:06.688Z,35.97
2018-12-26T12:13:35.823Z,39.03
2018-12-26T12:16:05.506Z,38.23
2018-12-26T12:18:34.298Z,36.60
2018-12-26T12:21:03.160Z,32.17
2018-12-26T12:23:32.600Z,34.90
2018-12-26T12:26:01.593Z,36.20
2018-12-26T12:28:31.703Z,34.53
2018-12-26T12:31:00.483Z,38.63
2018-12-26T12:33:30.351Z,37.77
2018-12-26T12:35:59.159Z,32.63
2018-12-26T12:38:28.044Z,36.47
2018-12-26T12:40:56.854Z,33.07
2018-12-26T12:43:26.351Z,36.17
2018-12-26T12:45:56.090Z,35.13
2018-12-26T12:48:24.985Z,35.63
2018-12-26T12:50:53.805Z,34.33
2018-12-26T12:53:25.671Z,32.60
2018-12-26T12:55:54.495Z,34.63
2018-12-26T12:58:23.997Z,37.63
2018-12-26T13:00:52.982Z,43.17
2018-12-26T13:03:21.867Z,51.50
2018-12-26T13:05:50.680Z,40.57
2018-12-26T13:08:19.608Z,33.60
2018-12-26T13:10:50.153Z,36.70
2018-12-26T13:13:20.423Z,34.43
2018-12-26T13:15:49.230Z,32.83
2018-12-26T13:18:18.145Z,32.63
2018-12-26T13:20:49.325Z,34.83
2018-12-26T13:23:18.251Z,32.13
2018-12-26T13:25:47.180Z,31.03
2018-12-26T13:28:16.206Z,31.90
2018-12-26T13:30:45.042Z,29.47
2018-12-26T13:33:14.451Z,29.03
2018-12-26T13:35:43.899Z,28.50
2018-12-26T13:38:12.695Z,29.17
2018-12-26T13:40:42.085Z,28.77
2018-12-26T13:43:10.998Z,27.30
2018-12-26T13:45:39.782Z,29.33
2018-12-26T13:48:08.676Z,28.27
2018-12-26T13:50:37.463Z,28.77
2018-12-26T13:53:06.337Z,30.00
2018-12-26T13:55:36.179Z,24.67
2018-12-26T13:58:05.015Z,24.10
2018-12-26T14:00:33.806Z,22.63
2018-12-26T14:03:02.587Z,24.10
2018-12-26T14:05:31.495Z,23.43
2018-12-26T14:08:00.293Z,24.23
2018-12-26T14:10:29.112Z,22.00
2018-12-26T14:12:57.920Z,24.07
2018-12-26T14:15:26.731Z,24.07
2018-12-26T14:17:55.540Z,23.73
2018-12-26T14:20:24.508Z,21.43
2018-12-26T14:22:53.459Z,21.93
2018-12-26T14:25:22.243Z,23.00
2018-12-26T14:27:51.207Z,21.00
2018-12-26T14:30:19.999Z,22.40
2018-12-26T14:32:48.865Z,22.83
2018-12-26T14:35:17.747Z,23.23
2018-12-26T14:37:46.534Z,22.70
2018-12-26T14:40:15.398Z,23.27
2018-12-26T14:42:44.252Z,24.97
2018-12-26T14:45:13.588Z,25.93
2018-12-26T14:47:43.227Z,23.30
2018-12-26T14:50:12.076Z,22.73
2018-12-26T14:52:41.535Z,22.50
2018-12-26T14:55:11.078Z,23.60
2018-12-26T14:57:39.977Z,23.07
2018-12-26T15:00:09.319Z,23.37
2018-12-26T15:02:38.817Z,22.53
2018-12-26T15:05:07.641Z,24.10
2018-12-26T15:07:36.552Z,26.03
2018-12-26T15:10:06.546Z,23.00
2018-12-26T15:12:35.486Z,23.73
2018-12-26T15:15:04.278Z,23.63
2018-12-26T15:17:33.120Z,24.70
2018-12-26T15:20:01.910Z,25.50
2018-12-26T15:22:32.038Z,24.27
2018-12-26T15:25:00.950Z,24.90
2018-12-26T15:27:29.852Z,23.97
2018-12-26T15:29:58.807Z,25.30
2018-12-26T15:32:28.064Z,24.43
2018-12-26T15:34:57.483Z,26.50
2018-12-26T15:37:26.254Z,22.27
2018-12-26T15:39:55.075Z,24.83
2018-12-26T15:42:24.963Z,23.57
2018-12-26T15:44:53.808Z,23.30
2018-12-26T15:47:22.592Z,38.97
2018-12-26T15:49:51.993Z,43.83
2018-12-26T15:52:20.846Z,31.07
2018-12-26T15:54:49.689Z,33.37
2018-12-26T15:57:18.479Z,31.87
2018-12-26T15:59:48.488Z,28.40
2018-12-26T16:02:17.264Z,26.17
2018-12-26T16:04:47.049Z,24.50
2018-12-26T16:07:15.906Z,26.30
2018-12-26T16:09:44.815Z,25.93
2018-12-26T16:12:13.688Z,25.37
2018-12-26T16:14:42.484Z,29.07
2018-12-26T16:17:11.275Z,25.43
2018-12-26T16:19:40.129Z,27.07
2018-12-26T16:22:09.614Z,34.30
2018-12-26T16:24:38.547Z,28.17
2018-12-26T16:27:07.397Z,26.17
2018-12-26T16:29:36.797Z,28.60
2018-12-26T16:32:06.315Z,28.40
2018-12-26T16:34:35.090Z,30.10
2018-12-26T16:37:03.887Z,30.97
2018-12-26T16:39:35.814Z,29.47
2018-12-26T16:42:02.440Z,31.00
2018-12-26T16:44:31.306Z,28.33
2018-12-26T16:47:00.794Z,29.93
2018-12-26T16:49:29.684Z,29.27
2018-12-26T16:51:58.502Z,29.13
2018-12-26T16:54:27.316Z,30.57
2018-12-26T16:56:56.192Z,29.83
2018-12-26T16:59:25.024Z,32.07
2018-12-26T17:01:58.688Z,30.90
2018-12-26T17:04:27.469Z,31.83
2018-12-26T17:06:56.317Z,28.63
2018-12-26T17:09:25.479Z,51.43
2018-12-26T17:11:54.390Z,36.77
2018-12-26T17:14:23.394Z,50.23
2018-12-26T17:16:52.224Z,34.73
2018-12-26T17:19:21.020Z,33.00
2018-12-26T17:21:49.866Z,26.57
2018-12-26T17:24:18.647Z,29.13
2018-12-26T17:26:47.437Z,29.83
2018-12-26T17:29:16.342Z,26.63
2018-12-26T17:31:45.155Z,23.80
2018-12-26T17:34:15.035Z,25.23
2018-12-26T17:36:43.879Z,26.80
2018-12-26T17:39:13.037Z,23.23
2018-12-26T17:41:41.798Z,24.30
2018-12-26T17:44:10.592Z,19.87
2018-12-26T17:46:39.420Z,21.17
2018-12-26T17:49:08.292Z,20.03
2018-12-26T17:51:37.309Z,22.40
2018-12-26T17:54:17.440Z,19.43
2018-12-26T17:57:04.705Z,21.20
2018-12-26T17:59:44.362Z,22.70
2018-12-26T18:02:18.230Z,20.57
2018-12-26T18:04:47.004Z,20.30
2018-12-26T18:07:15.871Z,19.40
2018-12-26T18:09:44.677Z,18.00
2018-12-26T18:12:13.480Z,21.63
2018-12-26T18:14:42.279Z,23.47
2018-12-26T18:17:11.101Z,22.37
2018-12-26T18:19:39.939Z,23.70
2018-12-26T18:22:09.763Z,22.30
2018-12-26T18:24:39.720Z,23.40
2018-12-26T18:27:08.601Z,23.20
2018-12-26T18:29:37.470Z,21.67
2018-12-26T18:32:06.294Z,23.10
2018-12-26T18:34:35.684Z,22.77
2018-12-26T18:37:04.502Z,22.30
2018-12-26T18:39:33.331Z,20.23
2018-12-26T18:42:02.943Z,25.40
2018-12-26T18:44:31.777Z,23.73
2018-12-26T18:47:00.594Z,22.83
2018-12-26T18:49:29.502Z,45.70
2018-12-26T18:51:58.291Z,43.07
2018-12-26T18:54:27.079Z,34.97
2018-12-26T18:56:56.000Z,26.53
2018-12-26T18:59:25.370Z,25.47
2018-12-26T19:01:54.143Z,23.90
2018-12-26T19:04:23.023Z,23.47
2018-12-26T19:06:51.844Z,22.97
2018-12-26T19:09:20.624Z,25.30
2018-12-26T19:11:49.460Z,25.10
2018-12-26T19:14:18.571Z,24.60
2018-12-26T19:16:47.456Z,27.67
2018-12-26T19:19:16.282Z,26.03
2018-12-26T19:21:45.136Z,28.33
2018-12-26T19:24:13.927Z,26.43
2018-12-26T19:26:43.578Z,27.97
2018-12-26T19:29:13.374Z,26.60
2018-12-26T19:31:42.186Z,25.70
2018-12-26T19:34:11.963Z,27.83
2018-12-26T19:36:41.425Z,27.20
2018-12-26T19:39:11.281Z,27.50
2018-12-26T19:41:43.089Z,28.10
2018-12-26T19:44:10.807Z,27.60
2018-12-26T19:46:39.598Z,27.73
2018-12-26T19:49:08.428Z,26.73
2018-12-26T19:51:37.715Z,26.97
2018-12-26T19:54:06.602Z,26.67
2018-12-26T19:56:35.420Z,25.80
2018-12-26T19:59:04.973Z,26.93
2018-12-26T20:01:33.797Z,31.03
2018-12-26T20:04:03.519Z,29.00
2018-12-26T20:06:34.111Z,47.00
2018-12-26T20:09:03.052Z,32.87
2018-12-26T20:11:31.887Z,28.30
2018-12-26T20:14:00.741Z,27.40
2018-12-26T20:16:29.632Z,28.93
2018-12-26T20:18:58.553Z,28.53
2018-12-26T20:21:27.427Z,27.77
2018-12-26T20:23:56.938Z,28.20
2018-12-26T20:26:25.788Z,28.37
2018-12-26T20:28:54.575Z,27.00
2018-12-26T20:31:23.392Z,27.43
2018-12-26T20:33:52.240Z,28.57
2018-12-26T20:36:21.766Z,28.53
2018-12-26T20:38:51.599Z,27.73
2018-12-26T20:41:21.099Z,27.07
2018-12-26T20:43:49.900Z,31.00
2018-12-26T20:46:18.687Z,29.30
2018-12-26T20:48:47.463Z,28.77
2018-12-26T20:51:17.867Z,26.63
2018-12-26T20:53:46.900Z,31.20
2018-12-26T20:56:15.676Z,28.13
2018-12-26T20:58:44.474Z,29.37
2018-12-26T21:01:13.259Z,29.07
2018-12-26T21:03:42.105Z,30.57
2018-12-26T21:06:10.897Z,27.43
2018-12-26T21:08:39.695Z,28.50
2018-12-26T21:11:08.472Z,31.47
2018-12-26T21:13:38.478Z,30.83
2018-12-26T21:16:07.282Z,38.33
2018-12-26T21:18:36.140Z,36.40
2018-12-26T21:21:06.388Z,33.87
2018-12-26T21:23:35.176Z,37.30
2018-12-26T21:26:04.804Z,37.17
2018-12-26T21:28:33.632Z,33.90
2018-12-26T21:31:02.419Z,29.97
2018-12-26T21:33:31.327Z,33.53
2018-12-26T21:36:00.117Z,40.97
2018-12-26T21:38:28.907Z,37.23
2018-12-26T21:40:57.727Z,31.80
2018-12-26T21:43:26.906Z,29.37
2018-12-26T21:45:56.288Z,29.23
2018-12-26T21:48:25.167Z,29.53
2018-12-26T21:50:54.592Z,29.67
2018-12-26T21:53:24.465Z,29.37
2018-12-26T21:55:55.065Z,31.93
2018-12-26T21:58:23.851Z,29.00
2018-12-26T22:00:52.747Z,32.70
2018-12-26T22:03:21.562Z,45.50
2018-12-26T22:05:50.879Z,51.70
2018-12-26T22:08:19.658Z,42.07
2018-12-26T22:10:48.441Z,31.93
2018-12-26T22:13:18.440Z,31.13
2018-12-26T22:15:46.020Z,29.87
2018-12-26T22:18:14.890Z,30.63
2018-12-26T22:20:44.853Z,31.70
2018-12-26T22:23:14.951Z,35.70
2018-12-26T22:25:43.907Z,37.67
2018-12-26T22:28:12.823Z,33.37
2018-12-26T22:30:41.683Z,31.27
2018-12-26T22:33:11.636Z,31.47
2018-12-26T22:35:40.417Z,31.80
2018-12-26T22:38:09.313Z,32.10
2018-12-26T22:40:38.135Z,30.17
2018-12-26T22:43:07.699Z,29.97
2018-12-26T22:48:11.555Z,29.40
2018-12-26T22:50:43.001Z,29.07
2018-12-26T22:53:11.759Z,28.27
2018-12-26T22:55:40.581Z,30.63
2018-12-26T22:58:10.253Z,29.13
2018-12-26T23:00:42.855Z,30.70
2018-12-26T23:03:11.643Z,31.93
2018-12-26T23:05:40.453Z,33.10
2018-12-26T23:08:09.259Z,33.60
2018-12-26T23:10:38.128Z,35.50
2018-12-26T23:13:06.934Z,33.93
2018-12-26T23:15:35.814Z,30.53
2018-12-26T23:18:04.578Z,29.40
2018-12-26T23:20:33.920Z,30.80
2018-12-26T23:23:02.858Z,28.40
2018-12-26T23:25:31.737Z,29.57
2018-12-26T23:28:00.529Z,29.63
2018-12-26T23:30:29.376Z,29.77
2018-12-26T23:32:58.142Z,31.63
2018-12-26T23:35:26.984Z,28.80
2018-12-26T23:37:56.309Z,28.97
2018-12-26T23:40:29.862Z,29.10
2018-12-26T23:43:00.002Z,30.80
2018-12-26T23:45:28.906Z,29.23
2018-12-26T23:47:57.695Z,27.70
2018-12-26T23:50:26.492Z,29.50
2018-12-26T23:52:55.283Z,27.30
2018-12-26T23:55:24.658Z,27.20
2018-12-26T23:57:53.478Z,28.90
